Time;durP1;ratioP1;P1;durP2;ratioP2;P2;SDS_P1;SDS_P2;PMS_P1;PMS_P2;Temp;Humidity;BMP_temperature;BMP_pressure;BME280_temperature;BME280_humidity;BME280_pressure;Samples;Min_cycle;Max_cycle;Signal;HPM_P1;HPM_P2
2023/08/14 00:01:43;;;;;;;3.63;1.77;;;;;;;21.73;62.69;101070.97;5092095;28;20153;-55
2023/08/14 00:04:10;;;;;;;2.80;1.60;;;;;;;21.67;62.84;101072.06;5091586;28;20056;-53
2023/08/14 00:06:36;;;;;;;2.00;1.67;;;;;;;21.69;62.30;101078.03;5091325;28;20056;-55
2023/08/14 00:09:03;;;;;;;1.88;1.42;;;;;;;21.41;62.77;101085.69;5084706;28;20086;-53
2023/08/14 00:11:29;;;;;;;1.58;1.33;;;;;;;21.10;64.74;101087.56;5083889;28;20031;-52
2023/08/14 00:13:56;;;;;;;3.28;1.50;;;;;;;20.77;65.27;101089.66;5091175;28;20063;-51
2023/08/14 00:16:23;;;;;;;1.25;1.00;;;;;;;20.82;64.36;101100.56;5081497;28;20501;-54
2023/08/14 00:18:50;;;;;;;2.85;1.40;;;;;;;21.00;64.79;101096.50;5091155;28;20026;-52
2023/08/14 00:21:16;;;;;;;1.40;1.00;;;;;;;21.06;63.60;101106.31;5091793;28;20054;-49
2023/08/14 00:23:43;;;;;;;1.27;1.15;;;;;;;21.01;65.00;101114.47;5091134;28;20027;-48
2023/08/14 00:26:12;;;;;;;1.30;1.20;;;;;;;20.82;65.91;101099.72;5091676;28;20031;-54
2023/08/14 00:28:38;;;;;;;2.15;1.45;;;;;;;20.90;65.79;101095.66;5085228;28;20028;-53
2023/08/14 00:31:05;;;;;;;1.30;1.20;;;;;;;20.93;64.83;101095.13;5091186;28;20555;-55
2023/08/14 00:33:31;;;;;;;2.75;1.20;;;;;;;20.61;66.28;101096.13;5091383;28;20131;-53
2023/08/14 00:35:58;;;;;;;1.90;0.90;;;;;;;20.90;65.50;101092.94;5091526;28;20508;-54
2023/08/14 00:38:24;;;;;;;1.10;1.00;;;;;;;20.50;66.64;101081.69;5089064;28;20364;-53
2023/08/14 00:40:52;;;;;;;1.30;0.80;;;;;;;20.72;66.46;101080.66;5091203;28;20028;-53
2023/08/14 00:43:21;;;;;;;2.90;1.20;;;;;;;20.82;66.13;101077.94;5091447;28;20496;-53
2023/08/14 00:45:49;;;;;;;1.67;1.33;;;;;;;20.80;66.07;101080.13;5088307;28;20474;-51
2023/08/14 00:48:15;;;;;;;1.13;0.98;;;;;;;20.85;66.21;101074.69;5089414;28;20028;-52
2023/08/14 00:50:42;;;;;;;1.27;0.90;;;;;;;20.41;68.02;101074.25;5091124;28;20028;-55
2023/08/14 00:53:10;;;;;;;1.98;1.05;;;;;;;20.33;68.17;101072.88;5090668;28;20043;-59
2023/08/14 00:55:36;;;;;;;1.23;1.10;;;;;;;20.22;68.28;101091.03;5091242;28;20107;-50
2023/08/14 00:58:03;;;;;;;1.30;1.10;;;;;;;20.36;68.02;101093.25;5086933;28;20107;-49
2023/08/14 01:00:30;;;;;;;1.65;1.17;;;;;;;20.01;69.58;101076.50;5087760;28;20455;-51
2023/08/14 01:02:56;;;;;;;1.85;0.95;;;;;;;20.14;68.78;101083.38;5070770;28;20060;-51
2023/08/14 01:05:23;;;;;;;2.28;1.05;;;;;;;19.90;69.70;101076.72;5070963;28;20095;-51
2023/08/14 01:07:50;;;;;;;3.20;1.20;;;;;;;19.57;70.70;101083.25;5075849;28;20485;-51
2023/08/14 01:10:16;;;;;;;3.38;1.25;;;;;;;19.59;71.58;101092.78;5079180;28;20389;-52
2023/08/14 01:12:56;;;;;;;3.10;1.30;;;;;;;19.47;72.63;101101.09;5115473;28;20015;-51
2023/08/14 01:15:34;;;;;;;2.53;1.08;;;;;;;19.63;71.74;101093.09;5104293;28;20157;-51
2023/08/14 01:18:03;;;;;;;2.30;1.20;;;;;;;19.59;72.01;101111.78;5094770;28;20031;-55
2023/08/14 01:20:35;;;;;;;1.23;0.90;;;;;;;19.72;71.89;101111.38;5094809;28;20465;-51
2023/08/14 01:23:23;;;;;;;1.33;1.20;;;;;;;19.77;71.52;101107.88;5095066;28;20168;-51
2023/08/14 01:25:52;;;;;;;2.33;0.93;;;;;;;19.60;71.59;101099.88;5095308;28;20024;-51
2023/08/14 01:28:18;;;;;;;1.90;0.93;;;;;;;19.37;72.60;101108.31;5112264;28;20028;-51
2023/08/14 01:30:45;;;;;;;0.93;0.82;;;;;;;19.32;73.60;101110.97;5115389;28;20692;-51
2023/08/14 01:33:14;;;;;;;1.05;0.75;;;;;;;19.52;73.22;101103.84;5103915;28;20066;-54
2023/08/14 01:35:51;;;;;;;2.28;0.70;;;;;;;19.22;73.42;101100.88;5093974;28;20119;-50
2023/08/14 01:38:35;;;;;;;0.93;0.60;;;;;;;19.42;71.63;101102.94;5094493;28;20035;-51
2023/08/14 01:41:26;;;;;;;1.27;0.43;;;;;;;19.46;69.60;101109.50;5093594;28;20505;-51
2023/08/14 01:43:57;;;;;;;5.05;0.50;;;;;;;19.52;68.60;101111.97;5095590;28;20032;-52
2023/08/14 01:46:25;;;;;;;0.35;0.35;;;;;;;19.42;69.71;101111.06;5073809;28;20032;-52
2023/08/14 01:48:55;;;;;;;0.40;0.40;;;;;;;19.42;69.45;101102.94;5073197;28;20028;-49
2023/08/14 01:51:23;;;;;;;0.98;0.68;;;;;;;19.60;69.23;101099.03;5079633;28;20042;-62
2023/08/14 01:53:49;;;;;;;1.52;1.17;;;;;;;19.47;69.69;101078.53;5093809;28;20032;-56
2023/08/14 01:56:16;;;;;;;1.08;0.90;;;;;;;19.70;69.54;101071.97;5094042;28;20050;-55
2023/08/14 01:58:42;;;;;;;1.75;1.02;;;;;;;19.39;69.86;101065.47;5090852;28;20031;-56
2023/08/14 02:01:08;;;;;;;1.00;0.80;;;;;;;19.52;69.35;101056.88;5093773;28;20028;-54
2023/08/14 02:03:34;;;;;;;1.52;0.50;;;;;;;19.35;69.44;101045.34;5076513;28;20086;-56
2023/08/14 02:06:01;;;;;;;1.23;0.65;;;;;;;19.33;70.69;101047.50;5083644;28;20028;-56
2023/08/14 02:08:27;;;;;;;1.23;0.60;;;;;;;19.30;71.29;101042.59;5084445;28;20024;-56
2023/08/14 02:10:54;;;;;;;1.73;1.10;;;;;;;19.26;71.28;101036.84;5073397;28;20524;-51
2023/08/14 02:13:21;;;;;;;2.53;1.02;;;;;;;19.41;70.72;101028.00;5073384;28;20051;-52
2023/08/14 02:15:48;;;;;;;1.58;0.77;;;;;;;19.43;70.89;101028.56;5091165;28;20046;-52
2023/08/14 02:18:14;;;;;;;18.98;2.40;;;;;;;19.35;71.58;101020.91;5087546;28;20047;-52
2023/08/14 02:20:49;;;;;;;1.02;0.90;;;;;;;19.40;71.22;101024.47;5092943;28;20105;-51
2023/08/14 02:23:15;;;;;;;;;;;;;;;19.53;71.13;101015.06;5093775;28;20031;-51
2023/08/14 02:25:42;;;;;;;1.50;1.00;;;;;;;19.43;71.90;101020.41;5076450;28;19912;-51
2023/08/14 02:28:09;;;;;;;1.92;0.98;;;;;;;19.24;73.04;101023.53;5087293;28;20036;-50
2023/08/14 02:30:43;;;;;;;1.88;1.00;;;;;;;19.14;74.00;101022.63;5093110;28;20101;-51
2023/08/14 02:33:10;;;;;;;1.35;1.15;;;;;;;18.65;76.14;101011.84;5091333;28;20020;-51
2023/08/14 02:35:37;;;;;;;1.58;1.10;;;;;;;18.71;76.41;101013.53;5093206;28;20482;-51
2023/08/14 02:38:05;;;;;;;3.08;1.70;;;;;;;18.70;76.34;101012.72;5093252;28;20024;-49
2023/08/14 02:40:32;;;;;;;1.55;1.30;;;;;;;18.52;77.32;101004.09;5093746;28;20103;-49
2023/08/14 02:43:00;;;;;;;2.08;1.38;;;;;;;18.42;78.35;101013.75;5090078;28;20482;-56
2023/08/14 02:45:26;;;;;;;1.17;0.90;;;;;;;18.51;77.47;101007.91;5080455;28;20024;-53
2023/08/14 02:47:53;;;;;;;1.48;1.10;;;;;;;18.25;78.10;101018.44;5092903;28;20039;-51
2023/08/14 02:50:21;;;;;;;1.20;1.00;;;;;;;18.34;78.21;101029.66;5079771;28;20397;-53
2023/08/14 02:52:50;;;;;;;1.85;1.25;;;;;;;18.18;79.39;101023.22;5072491;28;20127;-52
2023/08/14 02:55:17;;;;;;;1.90;1.30;;;;;;;18.28;78.97;101026.06;5072314;28;20037;-52
2023/08/14 02:57:43;;;;;;;2.65;1.45;;;;;;;18.28;78.95;101027.97;5035458;28;20044;-53
2023/08/14 03:00:10;;;;;;;1.10;1.00;;;;;;;18.38;78.28;101034.34;5092386;28;20026;-51
2023/08/14 03:02:36;;;;;;;2.65;1.40;;;;;;;18.53;77.42;101043.69;5083845;28;20398;-55
2023/08/14 03:05:03;;;;;;;1.70;1.00;;;;;;;18.59;76.94;101056.22;5092326;28;20021;-51
2023/08/14 03:07:29;;;;;;;5.28;1.50;;;;;;;18.70;75.61;101069.66;5089266;28;20078;-54
2023/08/14 03:09:56;;;;;;;1.30;1.20;;;;;;;18.68;75.78;101074.53;5091332;28;20036;-53
2023/08/14 03:12:22;;;;;;;1.60;1.50;;;;;;;18.66;75.74;101106.50;5089679;28;20077;-51
2023/08/14 03:14:49;;;;;;;1.20;1.10;;;;;;;18.67;75.97;101127.13;5091042;28;20066;-53
2023/08/14 03:17:15;;;;;;;3.42;1.50;;;;;;;18.68;75.61;101136.91;5083406;28;20025;-52
2023/08/14 03:19:41;;;;;;;1.50;1.40;;;;;;;18.66;75.59;101149.88;5086631;28;20032;-52
2023/08/14 03:22:07;;;;;;;2.50;1.65;;;;;;;18.53;76.51;101180.03;5094957;28;20481;-52
2023/08/14 03:24:34;;;;;;;3.10;1.40;;;;;;;18.31;77.70;101200.88;5097976;28;20031;-52
2023/08/14 03:27:00;;;;;;;3.28;1.77;;;;;;;18.18;78.93;101192.03;5092510;28;20367;-52
2023/08/14 03:29:28;;;;;;;1.83;1.60;;;;;;;18.03;80.41;101167.41;5092489;28;20040;-52
2023/08/14 03:31:55;;;;;;;1.55;1.35;;;;;;;18.17;80.54;101138.09;5092054;28;20032;-50
2023/08/14 03:34:21;;;;;;;2.83;1.42;;;;;;;18.06;81.60;101137.13;5095138;28;20481;-52
2023/08/14 03:36:47;;;;;;;1.58;1.40;;;;;;;18.03;81.63;101134.09;5098464;28;20040;-51
2023/08/14 03:39:13;;;;;;;2.28;1.92;;;;;;;18.02;82.15;101137.88;5104814;28;20031;-52
2023/08/14 03:41:40;;;;;;;4.07;1.60;;;;;;;17.89;82.42;101152.56;5112477;28;20525;-52
2023/08/14 03:44:06;;;;;;;2.25;1.20;;;;;;;17.87;82.59;101196.13;5092973;28;20382;-51
2023/08/14 03:46:32;;;;;;;3.65;1.50;;;;;;;17.56;83.88;101245.38;5091852;28;20034;-52
2023/08/14 03:48:59;;;;;;;2.28;1.40;;;;;;;17.46;85.13;101240.59;5092334;28;20042;-51
2023/08/14 03:51:25;;;;;;;1.75;1.30;;;;;;;17.68;83.36;101219.88;5091717;28;20025;-52
2023/08/14 03:53:51;;;;;;;1.92;1.50;;;;;;;17.71;82.09;101212.31;5086318;28;20059;-52
2023/08/14 03:56:17;;;;;;;2.03;1.30;;;;;;;17.89;81.47;101204.03;5106463;28;20031;-53
2023/08/14 03:58:44;;;;;;;2.08;1.60;;;;;;;17.74;81.99;101228.13;5080940;28;20470;-52
2023/08/14 04:01:11;;;;;;;1.33;1.20;;;;;;;18.09;80.10;101192.69;5071866;28;20020;-52
2023/08/14 04:03:37;;;;;;;2.17;1.27;;;;;;;18.14;80.14;101177.31;5071875;28;20052;-51
2023/08/14 04:06:04;;;;;;;2.92;1.50;;;;;;;17.86;81.34;101218.03;5071590;28;20391;-52
2023/08/14 04:08:30;;;;;;;2.00;1.55;;;;;;;17.97;81.48;101200.91;5071309;28;20089;-51
2023/08/14 04:10:57;;;;;;;2.78;1.30;;;;;;;18.23;80.47;101182.34;5092478;28;20035;-51
2023/08/14 04:13:24;;;;;;;1.10;1.00;;;;;;;18.23;80.40;101156.06;5111860;28;20059;-52
2023/08/14 04:15:51;;;;;;;2.45;1.27;;;;;;;18.27;80.26;101135.53;5111937;28;20424;-52
2023/08/14 04:18:17;;;;;;;2.15;1.27;;;;;;;18.44;79.60;101100.25;5112067;28;20055;-52
2023/08/14 04:20:44;;;;;;;1.95;1.40;;;;;;;18.57;78.25;101006.88;5112348;28;20050;-52
2023/08/14 04:23:10;;;;;;;1.38;1.25;;;;;;;18.50;77.39;100928.47;5112297;28;20103;-52
2023/08/14 04:25:36;;;;;;;1.75;1.20;;;;;;;18.45;77.23;100882.34;5111876;28;20103;-52
2023/08/14 04:28:03;;;;;;;1.58;1.15;;;;;;;18.50;76.76;100895.97;5098053;28;20122;-52
2023/08/14 04:30:29;;;;;;;1.20;1.10;;;;;;;18.43;77.02;100942.25;5091564;28;20520;-52
2023/08/14 04:32:55;;;;;;;1.60;1.10;;;;;;;18.37;77.46;100953.25;5085184;28;20035;-51
2023/08/14 04:35:21;;;;;;;1.58;1.48;;;;;;;18.42;76.82;100943.28;5070784;28;20069;-52
2023/08/14 04:37:49;;;;;;;1.65;1.27;;;;;;;18.30;77.31;100945.34;5071250;28;20547;-50
2023/08/14 04:40:15;;;;;;;1.92;1.30;;;;;;;18.35;77.53;100953.53;5071343;28;20029;-52
2023/08/14 04:42:41;;;;;;;1.58;1.48;;;;;;;18.32;77.54;100954.06;5070802;28;20111;-55
2023/08/14 04:45:08;;;;;;;1.83;1.60;;;;;;;17.91;79.76;101015.03;5088005;28;20066;-52
2023/08/14 04:47:34;;;;;;;2.42;1.30;;;;;;;17.77;79.97;101078.75;5093402;22;20055;-52
2023/08/14 04:50:00;;;;;;;1.33;1.23;;;;;;;17.94;77.72;101072.22;5071723;28;20110;-51
2023/08/14 04:52:27;;;;;;;1.42;1.27;;;;;;;18.32;75.96;101056.16;5065679;28;20033;-52
2023/08/14 04:54:53;;;;;;;2.13;1.30;;;;;;;18.29;75.12;100983.53;5071401;28;20051;-52
2023/08/14 04:57:19;;;;;;;2.17;1.00;;;;;;;18.44;74.42;100907.81;5059582;28;20546;-52
2023/08/14 04:59:45;;;;;;;1.35;1.10;;;;;;;18.56;74.08;100878.66;5054214;28;20390;-52
2023/08/14 05:02:12;;;;;;;1.48;1.00;;;;;;;18.78;72.36;100885.91;5054188;28;20051;-51
2023/08/14 05:04:38;;;;;;;2.30;1.50;;;;;;;18.48;74.57;100974.78;5054638;28;20025;-52
2023/08/14 05:07:04;;;;;;;2.45;1.23;;;;;;;18.53;74.10;101014.69;5054459;28;20028;-51
2023/08/14 05:09:31;;;;;;;6.97;2.08;;;;;;;18.70;76.85;101075.09;5054772;28;20017;-51
2023/08/14 05:12:00;;;;;;;4.50;2.10;;;;;;;18.73;77.83;101063.75;5054286;28;20032;-52
2023/08/14 05:14:27;;;;;;;1.27;0.93;;;;;;;18.61;75.73;101016.97;5054161;28;20057;-50
2023/08/14 05:16:54;;;;;;;1.77;1.40;;;;;;;18.60;77.80;101088.53;5054012;28;20032;-52
2023/08/14 05:19:20;;;;;;;2.58;1.45;;;;;;;18.93;78.11;101041.47;5072530;28;20035;-52
2023/08/14 05:21:47;;;;;;;2.00;1.30;;;;;;;18.90;78.10;101006.69;5074088;28;20016;-52
2023/08/14 05:24:15;;;;;;;3.78;1.67;;;;;;;18.89;78.67;101034.09;5074150;28;20030;-52
2023/08/14 05:26:41;;;;;;;3.33;1.52;;;;;;;18.77;80.98;101110.19;5073301;28;20044;-51
2023/08/14 05:29:07;;;;;;;2.47;1.40;;;;;;;18.99;81.35;101093.88;5070253;28;20107;-52
2023/08/14 05:31:33;;;;;;;3.00;1.80;;;;;;;19.16;81.76;101045.75;5094230;28;20087;-52
2023/08/14 05:34:00;;;;;;;3.17;1.73;;;;;;;18.99;81.50;101131.84;5074941;28;20474;-53
2023/08/14 05:36:26;;;;;;;2.47;1.98;;;;;;;18.55;82.95;101180.63;5073370;28;20043;-53
2023/08/14 05:38:53;;;;;;;1.88;1.48;;;;;;;19.03;80.82;101089.53;5074116;28;20078;-53
2023/08/14 05:41:21;;;;;;;1.42;1.33;;;;;;;19.03;80.85;101057.00;5073171;28;20031;-54
2023/08/14 05:43:48;;;;;;;2.08;1.60;;;;;;;18.94;81.46;101081.06;5074136;28;20033;-53
2023/08/14 05:46:15;;;;;;;2.28;1.33;;;;;;;19.19;81.55;101095.94;5073941;28;20060;-51
2023/08/14 05:48:41;;;;;;;2.75;1.55;;;;;;;18.81;81.22;101094.19;5073398;28;20053;-51
2023/08/14 05:51:08;;;;;;;2.55;1.65;;;;;;;18.86;80.57;101073.38;5070335;28;20021;-52
2023/08/14 05:53:34;;;;;;;2.63;1.70;;;;;;;18.83;81.15;101062.25;5053460;28;20438;-51
2023/08/14 05:56:00;;;;;;;2.88;1.67;;;;;;;18.82;81.96;101053.28;5053095;28;20536;-53
2023/08/14 05:58:26;;;;;;;2.95;1.80;;;;;;;18.70;82.38;101088.66;5053251;28;20029;-52
2023/08/14 06:00:53;;;;;;;3.53;1.50;;;;;;;18.79;80.82;101074.66;5063345;28;20039;-52
2023/08/14 06:03:19;;;;;;;4.22;1.60;;;;;;;18.61;81.29;101065.75;5073392;28;20411;-52
2023/08/14 06:05:45;;;;;;;1.48;1.38;;;;;;;18.71;81.39;101017.09;5073659;28;20028;-52
2023/08/14 06:08:12;;;;;;;2.38;1.73;;;;;;;18.62;82.14;100972.50;5073126;28;20038;-51
2023/08/14 06:10:38;;;;;;;3.80;2.00;;;;;;;18.30;84.24;100993.28;5073548;28;20052;-51
2023/08/14 06:13:04;;;;;;;1.90;1.45;;;;;;;18.25;84.42;101052.84;5073475;28;20108;-51
2023/08/14 06:15:31;;;;;;;3.72;2.13;;;;;;;18.09;85.67;101103.28;5072684;28;20078;-51
2023/08/14 06:17:57;;;;;;;4.32;1.88;;;;;;;17.89;87.43;101076.75;5071968;28;20178;-51
2023/08/14 06:20:23;;;;;;;2.00;1.80;;;;;;;18.01;86.82;101044.16;5072035;28;20055;-52
2023/08/14 06:22:50;;;;;;;3.20;1.95;;;;;;;17.86;87.16;101064.50;5073256;28;20024;-52
2023/08/14 06:25:17;;;;;;;1.77;1.67;;;;;;;17.84;87.58;101020.63;5073267;28;20078;-51
2023/08/14 06:27:43;;;;;;;3.10;1.92;;;;;;;17.98;87.02;101002.09;5060008;28;20039;-51
2023/08/14 06:30:10;;;;;;;3.40;2.30;;;;;;;17.72;88.83;101022.63;5053074;28;20029;-52
2023/08/14 06:32:38;;;;;;;3.63;2.00;;;;;;;17.74;88.68;101016.94;5052854;28;20025;-50
2023/08/14 06:35:06;;;;;;;3.97;1.88;;;;;;;17.81;87.99;101017.59;5053175;28;20054;-50
2023/08/14 06:37:32;;;;;;;4.20;2.10;;;;;;;17.93;87.68;101029.13;5052704;28;20162;-52
2023/08/14 06:39:59;;;;;;;2.30;2.10;;;;;;;17.78;88.12;101034.34;5053151;28;20029;-52
2023/08/14 06:42:25;;;;;;;2.63;2.22;;;;;;;17.63;87.59;101060.09;5052787;28;20486;-52
2023/08/14 06:44:51;;;;;;;3.22;2.47;;;;;;;17.55;87.59;101067.81;5052876;28;20040;-52
2023/08/14 06:47:17;;;;;;;3.15;2.15;;;;;;;17.47;88.48;101085.25;5052760;28;20153;-53
2023/08/14 06:49:44;;;;;;;2.78;2.58;;;;;;;17.36;88.90;101067.22;5054439;28;20029;-52
2023/08/14 06:52:11;;;;;;;4.72;2.92;;;;;;;17.31;88.91;101056.31;5052734;28;20033;-51
2023/08/14 06:54:37;;;;;;;2.88;2.50;;;;;;;17.00;90.19;101076.63;5052502;28;20022;-52
2023/08/14 06:57:04;;;;;;;3.55;3.20;;;;;;;16.85;91.42;101085.25;5052339;28;20075;-51
2023/08/14 06:59:31;;;;;;;3.80;3.25;;;;;;;16.89;91.33;101073.72;5052572;28;20277;-51
2023/08/14 07:01:57;;;;;;;3.30;2.97;;;;;;;16.80;91.37;101069.75;5051605;28;20024;-48
2023/08/14 07:04:23;;;;;;;4.00;3.13;;;;;;;16.59;91.80;101071.19;5051191;28;20036;-51
2023/08/14 07:06:49;;;;;;;4.63;3.45;;;;;;;16.58;92.22;101069.56;5051419;28;20029;-53
2023/08/14 07:09:16;;;;;;;3.83;3.40;;;;;;;16.54;92.56;101073.81;5052076;28;20024;-51
2023/08/14 07:11:43;;;;;;;3.78;3.47;;;;;;;16.45;92.93;101067.16;5051361;28;20104;-51
2023/08/14 07:14:10;;;;;;;3.47;3.15;;;;;;;16.47;93.21;101069.59;5051783;28;20021;-49
2023/08/14 07:16:36;;;;;;;3.10;2.90;;;;;;;16.50;92.50;101078.06;5051841;28;20017;-51
2023/08/14 07:19:03;;;;;;;9.95;3.50;;;;;;;16.28;93.73;101077.06;5052357;28;20486;-52
2023/08/14 07:21:29;;;;;;;6.28;3.28;;;;;;;16.18;95.09;101063.34;5052143;28;20047;-51
2023/08/14 07:23:56;;;;;;;3.38;2.95;;;;;;;16.26;94.15;101063.78;5052207;28;20383;-49
2023/08/14 07:26:22;;;;;;;3.10;2.83;;;;;;;16.22;93.90;101062.63;5051511;28;20025;-51
2023/08/14 07:28:48;;;;;;;4.05;3.35;;;;;;;16.13;94.22;101060.53;5050946;28;20036;-52
2023/08/14 07:31:15;;;;;;;4.57;3.47;;;;;;;16.03;95.07;101061.94;5051527;28;20027;-51
2023/08/14 07:33:41;;;;;;;3.00;2.55;;;;;;;16.08;94.93;101070.16;5052095;28;20033;-51
2023/08/14 07:36:07;;;;;;;3.45;3.15;;;;;;;16.15;94.88;101055.69;5060493;28;20031;-52
2023/08/14 07:38:33;;;;;;;4.20;2.65;;;;;;;16.00;95.49;101069.72;5051353;28;20479;-51
2023/08/14 07:41:00;;;;;;;6.95;3.17;;;;;;;16.04;94.91;101079.78;5057424;28;20490;-52
2023/08/14 07:43:26;;;;;;;2.97;2.70;;;;;;;16.04;95.06;101076.25;5051681;28;20067;-52
2023/08/14 07:45:52;;;;;;;3.75;2.80;;;;;;;16.03;95.04;101075.44;5051844;28;20709;-52
2023/08/14 07:48:18;;;;;;;3.30;3.00;;;;;;;15.88;96.47;101083.22;5033275;28;20580;-51
2023/08/14 07:50:50;;;;;;;3.30;3.00;;;;;;;15.77;97.16;101089.44;5054348;28;20474;-52
2023/08/14 07:53:16;;;;;;;3.15;2.83;;;;;;;15.89;97.10;101090.25;5066748;28;20036;-51
2023/08/14 07:55:42;;;;;;;4.50;3.40;;;;;;;15.99;95.77;101095.88;5057711;28;20099;-52
2023/08/14 07:58:09;;;;;;;4.05;3.10;;;;;;;16.01;95.51;101096.47;5067437;28;20036;-52
2023/08/14 08:00:35;;;;;;;3.92;3.35;;;;;;;16.03;95.18;101094.34;5056857;28;20077;-52
2023/08/14 08:03:01;;;;;;;2.78;2.28;;;;;;;15.93;95.55;101087.88;5059957;28;20032;-51
2023/08/14 08:05:28;;;;;;;4.82;3.00;;;;;;;15.88;96.16;101098.56;5051730;28;20021;-54
2023/08/14 08:07:54;;;;;;;3.25;2.83;;;;;;;15.92;96.28;101089.75;5050910;28;20033;-54
2023/08/14 08:10:20;;;;;;;2.70;2.50;;;;;;;15.91;96.57;101093.53;5050686;28;20121;-50
2023/08/14 08:12:46;;;;;;;4.03;2.60;;;;;;;15.98;96.38;101086.13;5051026;28;20110;-49
2023/08/14 08:15:13;;;;;;;3.50;2.42;;;;;;;16.05;96.03;101096.81;5059979;28;20044;-51
2023/08/14 08:17:39;;;;;;;3.08;2.40;;;;;;;16.19;95.52;101092.81;5071749;28;20499;-51
2023/08/14 08:20:07;;;;;;;2.63;2.42;;;;;;;16.21;95.67;101095.25;5077954;28;20031;-52
2023/08/14 08:22:34;;;;;;;3.10;2.67;;;;;;;16.27;95.44;101094.34;5077997;28;20028;-51
2023/08/14 08:25:00;;;;;;;4.30;2.60;;;;;;;16.29;95.32;101082.22;5075153;28;20090;-51
2023/08/14 08:27:26;;;;;;;4.18;2.30;;;;;;;16.37;94.59;101081.84;5056039;28;20025;-51
2023/08/14 08:29:52;;;;;;;2.42;2.17;;;;;;;16.41;94.41;101075.97;5057971;28;20219;-52
2023/08/14 08:32:18;;;;;;;4.53;2.90;;;;;;;16.44;93.71;101070.91;5066896;28;20390;-51
2023/08/14 08:34:45;;;;;;;3.10;2.20;;;;;;;16.56;93.38;101076.28;5057604;28;20021;-49
2023/08/14 08:37:11;;;;;;;2.72;2.08;;;;;;;16.53;93.51;101074.88;5062615;28;20033;-51
2023/08/14 08:39:37;;;;;;;2.75;2.15;;;;;;;16.56;92.69;101074.41;5057414;28;20548;-51
2023/08/14 08:42:09;;;;;;;2.83;2.17;;;;;;;16.56;92.56;101076.28;5062577;28;20032;-51
2023/08/14 08:44:38;;;;;;;3.13;2.33;;;;;;;16.59;92.75;101087.41;5077705;28;20749;-51
2023/08/14 08:47:10;;;;;;;4.05;2.70;;;;;;;16.66;92.36;101083.75;5077316;28;20051;-52
2023/08/14 08:49:36;;;;;;;3.40;3.00;;;;;;;16.70;92.18;101074.09;5064297;28;20471;-51
2023/08/14 08:52:04;;;;;;;3.95;2.60;;;;;;;16.53;92.99;101074.06;5057537;28;20465;-51
2023/08/14 08:54:31;;;;;;;2.65;2.45;;;;;;;16.64;92.12;101073.19;5057617;28;20413;-52
2023/08/14 08:56:58;;;;;;;2.30;2.10;;;;;;;16.74;91.21;101089.66;5056204;28;20041;-51
2023/08/14 08:59:26;;;;;;;3.15;2.63;;;;;;;16.61;91.45;101084.50;5057408;28;20029;-51
2023/08/14 09:01:53;;;;;;;3.05;2.75;;;;;;;16.63;91.17;101090.47;5057124;28;20036;-52
2023/08/14 09:04:19;;;;;;;3.30;2.65;;;;;;;16.59;91.56;101084.72;5057815;28;20593;-51
2023/08/14 09:06:46;;;;;;;3.33;3.03;;;;;;;16.52;92.38;101081.34;5057493;28;20125;-52
2023/08/14 09:09:14;;;;;;;4.13;3.42;;;;;;;16.30;94.09;101075.75;5057391;28;20025;-52
2023/08/14 09:11:40;;;;;;;3.50;3.20;;;;;;;16.05;96.34;101076.03;5056745;28;20162;-51
2023/08/14 09:14:07;;;;;;;3.72;2.95;;;;;;;16.01;96.61;101082.97;5057039;28;20493;-51
2023/08/14 09:16:33;;;;;;;4.47;3.08;;;;;;;16.14;96.26;101070.25;5056948;28;20029;-52
2023/08/14 09:19:00;;;;;;;3.88;3.47;;;;;;;15.91;98.26;101077.31;5057270;28;20419;-52
2023/08/14 09:21:28;;;;;;;3.60;3.30;;;;;;;15.97;98.63;101084.47;5057432;28;20013;-52
2023/08/14 09:23:55;;;;;;;3.30;2.83;;;;;;;16.08;98.42;101083.66;5057447;28;20063;-53
2023/08/14 09:26:22;;;;;;;4.28;3.47;;;;;;;15.92;99.36;101087.06;5056940;28;20040;-52
2023/08/14 09:28:49;;;;;;;4.07;3.30;;;;;;;15.99;98.85;101090.50;5057437;28;20414;-53
2023/08/14 09:31:15;;;;;;;3.90;3.53;;;;;;;15.88;99.94;101083.22;5053009;28;20053;-52
2023/08/14 09:33:44;;;;;;;2.97;2.67;;;;;;;16.04;99.25;101078.97;5053832;28;20017;-52
2023/08/14 09:36:12;;;;;;;2.47;2.15;;;;;;;16.12;98.28;101075.09;5053272;28;20033;-51
2023/08/14 09:38:39;;;;;;;3.28;2.92;;;;;;;15.87;99.81;101065.34;5054328;28;20025;-51
2023/08/14 09:41:06;;;;;;;3.28;2.97;;;;;;;16.05;98.83;101067.94;5054158;28;20083;-51
2023/08/14 09:43:33;;;;;;;3.97;3.00;;;;;;;16.00;99.34;101062.44;5053762;28;20426;-52
2023/08/14 09:46:01;;;;;;;5.47;3.58;;;;;;;15.92;99.33;101057.38;5053513;28;20029;-52
2023/08/14 09:48:40;;;;;;;4.25;3.85;;;;;;;16.01;98.62;101055.97;5052211;28;20459;-52
2023/08/14 09:51:11;;;;;;;4.35;3.20;;;;;;;16.14;98.12;101056.75;5053603;28;20033;-52
2023/08/14 09:53:45;;;;;;;5.38;3.60;;;;;;;16.22;97.64;101053.72;5053400;28;20096;-51
2023/08/14 09:56:13;;;;;;;4.22;3.83;;;;;;;16.21;96.97;101052.03;5053222;28;20042;-52
2023/08/14 09:58:40;;;;;;;4.88;4.32;;;;;;;16.03;97.97;101053.84;5053790;28;20513;-52
2023/08/14 10:01:07;;;;;;;5.35;4.80;;;;;;;16.12;97.56;101053.50;5053679;28;20383;-51
2023/08/14 10:03:35;;;;;;;6.10;5.13;;;;;;;16.14;97.99;101056.75;5052440;28;20497;-52
2023/08/14 10:06:05;;;;;;;4.93;4.43;;;;;;;16.06;98.70;101057.97;5053268;28;20029;-51
2023/08/14 10:08:34;;;;;;;4.88;4.18;;;;;;;16.17;98.54;101051.72;5053030;28;20036;-51
2023/08/14 10:11:04;;;;;;;3.65;3.35;;;;;;;16.17;97.93;101045.50;5053595;28;20483;-51
2023/08/14 10:13:35;;;;;;;3.40;3.10;;;;;;;16.25;97.16;101020.81;5053627;28;20355;-51
2023/08/14 10:16:08;;;;;;;2.60;2.40;;;;;;;16.22;97.25;100994.28;5052889;28;20032;-52
2023/08/14 10:18:38;;;;;;;2.60;2.30;;;;;;;16.20;97.47;100983.72;5051779;28;20111;-52
2023/08/14 10:21:09;;;;;;;2.67;2.20;;;;;;;16.13;97.49;100985.72;5053104;28;20061;-52
2023/08/14 10:23:36;;;;;;;2.65;2.45;;;;;;;16.00;98.73;100997.63;5052480;28;20021;-51
2023/08/14 10:26:03;;;;;;;3.05;2.75;;;;;;;15.86;100.00;101009.72;5051264;28;20036;-51
2023/08/14 10:28:31;;;;;;;3.97;3.10;;;;;;;16.01;99.33;101007.38;5052029;28;20029;-51
2023/08/14 10:30:59;;;;;;;3.63;2.40;;;;;;;16.11;98.94;100979.75;5062345;28;20025;-52
2023/08/14 10:33:26;;;;;;;3.72;2.90;;;;;;;16.20;98.03;100953.19;5053462;28;20029;-51
2023/08/14 10:35:55;;;;;;;2.60;2.40;;;;;;;16.22;98.05;100934.88;5052242;28;20037;-51
2023/08/14 10:38:41;;;;;;;2.45;2.25;;;;;;;16.20;98.69;100953.19;5052820;28;20024;-52
2023/08/14 10:41:09;;;;;;;3.88;3.47;;;;;;;16.13;98.74;100949.81;5051947;28;20021;-52
2023/08/14 10:43:36;;;;;;;4.20;3.80;;;;;;;16.09;98.88;100960.25;5052574;28;20029;-51
2023/08/14 10:46:15;;;;;;;4.30;3.78;;;;;;;16.19;98.84;100978.56;5052588;28;20029;-51
2023/08/14 10:48:43;;;;;;;5.60;4.30;;;;;;;16.15;98.19;100966.59;5052152;28;20154;-51
2023/08/14 10:51:13;;;;;;;5.93;4.65;;;;;;;16.15;98.26;100953.91;5052616;28;20471;-51
2023/08/14 10:53:42;;;;;;;4.50;3.92;;;;;;;16.21;98.13;100957.53;5052728;28;20463;-52
2023/08/14 10:56:10;;;;;;;6.72;3.92;;;;;;;16.21;98.07;100984.53;5053354;28;20025;-51
2023/08/14 10:58:38;;;;;;;4.97;4.28;;;;;;;16.12;98.30;100991.38;5052244;28;20158;-52
2023/08/14 11:01:09;;;;;;;7.28;5.50;;;;;;;16.03;99.38;101002.53;5052179;28;20013;-50
2023/08/14 11:04:01;;;;;;;5.97;4.90;;;;;;;16.13;98.62;101014.63;5052529;28;20021;-52
2023/08/14 11:06:45;;;;;;;3.90;3.50;;;;;;;16.23;97.99;101026.47;5039065;28;20487;-49
2023/08/14 11:09:12;;;;;;;5.90;4.97;;;;;;;16.02;98.82;101038.69;5052663;28;20391;-52
2023/08/14 11:11:44;;;;;;;7.70;4.68;;;;;;;15.92;99.68;101032.25;5051908;28;20539;-51
2023/08/14 11:14:10;;;;;;;5.82;4.28;;;;;;;15.91;99.63;101031.44;5052020;28;20490;-52
2023/08/14 11:16:36;;;;;;;5.05;3.50;;;;;;;16.08;98.32;101032.34;5051584;28;20029;-52
2023/08/14 11:19:04;;;;;;;4.05;3.42;;;;;;;16.08;98.13;101040.44;5052632;28;20502;-52
2023/08/14 11:21:35;;;;;;;3.25;2.95;;;;;;;16.36;96.51;101006.44;5051708;28;20044;-51
2023/08/14 11:24:10;;;;;;;3.05;2.78;;;;;;;16.31;96.69;100993.66;5051268;28;20613;-52
2023/08/14 11:26:36;;;;;;;4.60;3.58;;;;;;;16.39;96.08;100989.78;5051244;28;20091;-52